Terminal Aerodrome Forecast
Issued by NWS Portland, OR

Home | Current Version | Previous Version | Text Only | Print | Product List | Glossary On
Versions: 1 2 3 4 5 6 7 8 9 10 11 12 13 14 15 16 17 18 19 20 21 22 23 24 25 26 27 28 29
000
FTUS46 KPQR 171725
TAFPDX
TAF
KPDX 171725Z 1718/1818 14006KT P6SM FEW015 SCT025 OVC050
     FM171830 17007KT 6SM BR VCSH SCT015 BKN025 OVC040
     FM172030 29010KT 3SM RA BR BKN015 OVC025
     FM172130 29008KT 6SM BR VCSH SCT015 BKN025 OVC040
     FM172230 29007KT P6SM VCSH SCT025 BKN040
     FM180800 12004KT 3SM BR SCT006 BKN015=

USA.gov is the U.S. government's official web portal to all federal, state and local government web resources and services.